sensor_id;sensor_type;location;lat;lon;timestamp;P1;durP1;ratioP1;P2;durP2;ratioP2
44694;SDS011;32845;59.422;17.930;2023-09-18T00:01:28;5.80;;;1.60;;
44694;SDS011;32845;59.422;17.930;2023-09-18T00:05:59;2.92;;;1.20;;
44694;SDS011;32845;59.422;17.930;2023-09-18T00:10:30;2.20;;;1.25;;
44694;SDS011;32845;59.422;17.930;2023-09-18T00:15:00;7.70;;;1.60;;
44694;SDS011;32845;59.422;17.930;2023-09-18T00:19:31;3.72;;;1.45;;
44694;SDS011;32845;59.422;17.930;2023-09-18T00:24:03;3.53;;;1.35;;
44694;SDS011;32845;59.422;17.930;2023-09-18T00:28:34;5.40;;;1.60;;
44694;SDS011;32845;59.422;17.930;2023-09-18T00:33:05;3.53;;;1.58;;
44694;SDS011;32845;59.422;17.930;2023-09-18T00:37:35;2.35;;;1.27;;
44694;SDS011;32845;59.422;17.930;2023-09-18T00:42:07;10.20;;;1.10;;
44694;SDS011;32845;59.422;17.930;2023-09-18T00:46:37;4.65;;;1.20;;
44694;SDS011;32845;59.422;17.930;2023-09-18T00:51:08;6.60;;;1.50;;
44694;SDS011;32845;59.422;17.930;2023-09-18T00:55:39;6.78;;;1.65;;
44694;SDS011;32845;59.422;17.930;2023-09-18T01:00:09;3.42;;;1.20;;
44694;SDS011;32845;59.422;17.930;2023-09-18T01:04:45;2.55;;;1.30;;
44694;SDS011;32845;59.422;17.930;2023-09-18T01:09:17;3.88;;;1.25;;
44694;SDS011;32845;59.422;17.930;2023-09-18T01:13:51;5.75;;;1.35;;
44694;SDS011;32845;59.422;17.930;2023-09-18T01:18:37;3.85;;;1.35;;
44694;SDS011;32845;59.422;17.930;2023-09-18T01:23:07;4.53;;;1.20;;
44694;SDS011;32845;59.422;17.930;2023-09-18T01:27:38;2.35;;;1.10;;
44694;SDS011;32845;59.422;17.930;2023-09-18T01:32:09;3.17;;;1.25;;
44694;SDS011;32845;59.422;17.930;2023-09-18T01:36:40;3.85;;;0.90;;
44694;SDS011;32845;59.422;17.930;2023-09-18T01:41:11;2.67;;;1.00;;
44694;SDS011;32845;59.422;17.930;2023-09-18T01:45:42;2.88;;;0.90;;
44694;SDS011;32845;59.422;17.930;2023-09-18T01:50:13;2.67;;;0.82;;
44694;SDS011;32845;59.422;17.930;2023-09-18T01:54:44;1.35;;;0.80;;
44694;SDS011;32845;59.422;17.930;2023-09-18T01:59:14;2.42;;;1.02;;
44694;SDS011;32845;59.422;17.930;2023-09-18T02:03:46;1.70;;;1.10;;
44694;SDS011;32845;59.422;17.930;2023-09-18T02:08:17;5.78;;;1.63;;
44694;SDS011;32845;59.422;17.930;2023-09-18T02:12:47;1.23;;;0.77;;
44694;SDS011;32845;59.422;17.930;2023-09-18T02:17:18;3.83;;;1.52;;
44694;SDS011;32845;59.422;17.930;2023-09-18T02:21:50;4.68;;;1.00;;
44694;SDS011;32845;59.422;17.930;2023-09-18T02:26:21;4.40;;;1.15;;
44694;SDS011;32845;59.422;17.930;2023-09-18T02:30:52;2.70;;;1.05;;
44694;SDS011;32845;59.422;17.930;2023-09-18T02:35:23;2.33;;;1.05;;
44694;SDS011;32845;59.422;17.930;2023-09-18T02:39:54;2.75;;;0.93;;
44694;SDS011;32845;59.422;17.930;2023-09-18T02:44:24;2.42;;;0.80;;
44694;SDS011;32845;59.422;17.930;2023-09-18T02:48:55;3.60;;;1.00;;
44694;SDS011;32845;59.422;17.930;2023-09-18T02:53:25;2.25;;;0.80;;
44694;SDS011;32845;59.422;17.930;2023-09-18T02:57:56;2.25;;;0.70;;
44694;SDS011;32845;59.422;17.930;2023-09-18T03:02:26;3.40;;;1.23;;
44694;SDS011;32845;59.422;17.930;2023-09-18T03:06:57;2.78;;;1.38;;
44694;SDS011;32845;59.422;17.930;2023-09-18T03:11:28;6.47;;;1.73;;
44694;SDS011;32845;59.422;17.930;2023-09-18T03:15:58;13.48;;;1.50;;
44694;SDS011;32845;59.422;17.930;2023-09-18T03:20:29;5.30;;;1.80;;
44694;SDS011;32845;59.422;17.930;2023-09-18T03:25:01;7.72;;;1.40;;
44694;SDS011;32845;59.422;17.930;2023-09-18T03:29:32;3.25;;;1.75;;
44694;SDS011;32845;59.422;17.930;2023-09-18T03:34:03;3.83;;;1.48;;
44694;SDS011;32845;59.422;17.930;2023-09-18T03:38:34;4.22;;;1.23;;
44694;SDS011;32845;59.422;17.930;2023-09-18T03:43:06;2.45;;;1.00;;
44694;SDS011;32845;59.422;17.930;2023-09-18T03:47:38;7.95;;;1.27;;
44694;SDS011;32845;59.422;17.930;2023-09-18T03:52:09;1.60;;;1.13;;
44694;SDS011;32845;59.422;17.930;2023-09-18T03:56:40;1.92;;;0.85;;
44694;SDS011;32845;59.422;17.930;2023-09-18T04:01:10;8.98;;;2.42;;
44694;SDS011;32845;59.422;17.930;2023-09-18T04:05:41;1.35;;;0.80;;
44694;SDS011;32845;59.422;17.930;2023-09-18T04:10:12;8.00;;;2.15;;
44694;SDS011;32845;59.422;17.930;2023-09-18T04:14:49;2.55;;;1.20;;
44694;SDS011;32845;59.422;17.930;2023-09-18T04:19:19;2.45;;;0.85;;
44694;SDS011;32845;59.422;17.930;2023-09-18T04:23:50;2.20;;;1.00;;
44694;SDS011;32845;59.422;17.930;2023-09-18T04:28:25;1.52;;;0.95;;
44694;SDS011;32845;59.422;17.930;2023-09-18T04:32:56;2.55;;;1.00;;
44694;SDS011;32845;59.422;17.930;2023-09-18T04:37:28;1.85;;;0.90;;
44694;SDS011;32845;59.422;17.930;2023-09-18T04:41:58;4.20;;;1.13;;
44694;SDS011;32845;59.422;17.930;2023-09-18T04:46:30;7.00;;;0.98;;
44694;SDS011;32845;59.422;17.930;2023-09-18T04:51:01;2.08;;;1.10;;
44694;SDS011;32845;59.422;17.930;2023-09-18T04:55:33;4.93;;;1.40;;
44694;SDS011;32845;59.422;17.930;2023-09-18T05:00:04;3.92;;;0.90;;
44694;SDS011;32845;59.422;17.930;2023-09-18T05:04:39;1.98;;;0.98;;
44694;SDS011;32845;59.422;17.930;2023-09-18T05:09:09;2.20;;;1.08;;
44694;SDS011;32845;59.422;17.930;2023-09-18T05:13:40;3.10;;;0.77;;
44694;SDS011;32845;59.422;17.930;2023-09-18T05:18:10;3.30;;;1.13;;
44694;SDS011;32845;59.422;17.930;2023-09-18T05:22:41;1.77;;;0.90;;
44694;SDS011;32845;59.422;17.930;2023-09-18T05:27:12;2.25;;;1.08;;
44694;SDS011;32845;59.422;17.930;2023-09-18T05:31:43;3.05;;;0.90;;
44694;SDS011;32845;59.422;17.930;2023-09-18T05:36:13;3.70;;;1.10;;
44694;SDS011;32845;59.422;17.930;2023-09-18T05:40:44;2.25;;;1.08;;
44694;SDS011;32845;59.422;17.930;2023-09-18T05:45:16;1.65;;;0.82;;
44694;SDS011;32845;59.422;17.930;2023-09-18T05:49:46;3.30;;;0.98;;
44694;SDS011;32845;59.422;17.930;2023-09-18T05:54:17;2.78;;;1.15;;
44694;SDS011;32845;59.422;17.930;2023-09-18T05:58:47;1.77;;;1.02;;
44694;SDS011;32845;59.422;17.930;2023-09-18T06:03:18;3.53;;;1.10;;
44694;SDS011;32845;59.422;17.930;2023-09-18T06:07:50;4.60;;;1.30;;
44694;SDS011;32845;59.422;17.930;2023-09-18T06:12:21;3.50;;;1.63;;
44694;SDS011;32845;59.422;17.930;2023-09-18T06:16:51;8.77;;;2.10;;
44694;SDS011;32845;59.422;17.930;2023-09-18T06:21:22;5.80;;;1.75;;
44694;SDS011;32845;59.422;17.930;2023-09-18T06:25:52;5.13;;;1.60;;
44694;SDS011;32845;59.422;17.930;2023-09-18T06:30:26;5.05;;;1.30;;
44694;SDS011;32845;59.422;17.930;2023-09-18T06:34:57;4.18;;;1.42;;
44694;SDS011;32845;59.422;17.930;2023-09-18T06:39:27;3.25;;;1.25;;
44694;SDS011;32845;59.422;17.930;2023-09-18T06:43:58;5.03;;;0.90;;
44694;SDS011;32845;59.422;17.930;2023-09-18T06:48:32;2.47;;;0.80;;
44694;SDS011;32845;59.422;17.930;2023-09-18T06:53:03;3.25;;;0.90;;
44694;SDS011;32845;59.422;17.930;2023-09-18T06:57:33;7.43;;;1.05;;
44694;SDS011;32845;59.422;17.930;2023-09-18T07:02:04;5.03;;;0.85;;
44694;SDS011;32845;59.422;17.930;2023-09-18T07:06:36;2.72;;;0.85;;
44694;SDS011;32845;59.422;17.930;2023-09-18T07:11:07;2.58;;;0.70;;
44694;SDS011;32845;59.422;17.930;2023-09-18T07:15:38;3.53;;;1.00;;
44694;SDS011;32845;59.422;17.930;2023-09-18T07:20:08;10.40;;;0.70;;
44694;SDS011;32845;59.422;17.930;2023-09-18T07:24:43;4.32;;;0.77;;
44694;SDS011;32845;59.422;17.930;2023-09-18T07:29:15;0.73;;;0.60;;
44694;SDS011;32845;59.422;17.930;2023-09-18T07:33:46;2.80;;;0.77;;
44694;SDS011;32845;59.422;17.930;2023-09-18T07:38:18;2.42;;;0.65;;
44694;SDS011;32845;59.422;17.930;2023-09-18T07:42:51;1.02;;;0.40;;
44694;SDS011;32845;59.422;17.930;2023-09-18T07:47:22;0.90;;;0.60;;
44694;SDS011;32845;59.422;17.930;2023-09-18T07:51:53;1.27;;;0.60;;
44694;SDS011;32845;59.422;17.930;2023-09-18T07:56:23;6.72;;;1.02;;
44694;SDS011;32845;59.422;17.930;2023-09-18T08:00:55;1.88;;;0.60;;
44694;SDS011;32845;59.422;17.930;2023-09-18T08:05:27;1.10;;;0.43;;
44694;SDS011;32845;59.422;17.930;2023-09-18T08:09:58;2.83;;;0.50;;
44694;SDS011;32845;59.422;17.930;2023-09-18T08:14:29;1.40;;;0.50;;
44694;SDS011;32845;59.422;17.930;2023-09-18T08:19:00;1.75;;;0.43;;
44694;SDS011;32845;59.422;17.930;2023-09-18T08:23:31;2.15;;;0.60;;
44694;SDS011;32845;59.422;17.930;2023-09-18T08:28:02;5.65;;;0.88;;
44694;SDS011;32845;59.422;17.930;2023-09-18T08:32:34;4.03;;;0.77;;
44694;SDS011;32845;59.422;17.930;2023-09-18T08:37:05;2.22;;;0.77;;
44694;SDS011;32845;59.422;17.930;2023-09-18T08:41:38;2.38;;;0.50;;
44694;SDS011;32845;59.422;17.930;2023-09-18T08:46:13;2.05;;;0.40;;
44694;SDS011;32845;59.422;17.930;2023-09-18T08:50:43;4.57;;;0.40;;
44694;SDS011;32845;59.422;17.930;2023-09-18T08:55:16;0.75;;;0.40;;
44694;SDS011;32845;59.422;17.930;2023-09-18T08:59:48;3.05;;;0.47;;
44694;SDS011;32845;59.422;17.930;2023-09-18T09:04:20;0.95;;;0.40;;
44694;SDS011;32845;59.422;17.930;2023-09-18T09:08:51;7.22;;;0.82;;
44694;SDS011;32845;59.422;17.930;2023-09-18T09:13:21;2.63;;;0.47;;
44694;SDS011;32845;59.422;17.930;2023-09-18T09:18:06;0.65;;;0.32;;
44694;SDS011;32845;59.422;17.930;2023-09-18T09:22:39;8.10;;;0.93;;
44694;SDS011;32845;59.422;17.930;2023-09-18T09:27:10;3.95;;;0.60;;
44694;SDS011;32845;59.422;17.930;2023-09-18T09:31:42;3.55;;;0.45;;
44694;SDS011;32845;59.422;17.930;2023-09-18T09:36:13;3.55;;;0.70;;
44694;SDS011;32845;59.422;17.930;2023-09-18T09:40:45;1.13;;;0.45;;
44694;SDS011;32845;59.422;17.930;2023-09-18T09:45:16;1.85;;;0.50;;
44694;SDS011;32845;59.422;17.930;2023-09-18T09:49:47;6.63;;;0.82;;
44694;SDS011;32845;59.422;17.930;2023-09-18T09:54:38;5.38;;;0.70;;
44694;SDS011;32845;59.422;17.930;2023-09-18T09:59:11;3.55;;;0.57;;
44694;SDS011;32845;59.422;17.930;2023-09-18T10:03:44;2.78;;;0.50;;
44694;SDS011;32845;59.422;17.930;2023-09-18T10:08:22;2.95;;;0.50;;
44694;SDS011;32845;59.422;17.930;2023-09-18T10:12:56;2.03;;;0.50;;
44694;SDS011;32845;59.422;17.930;2023-09-18T10:17:31;2.33;;;0.50;;
44694;SDS011;32845;59.422;17.930;2023-09-18T10:26:56;3.40;;;0.52;;
44694;SDS011;32845;59.422;17.930;2023-09-18T10:31:28;2.40;;;0.60;;
44694;SDS011;32845;59.422;17.930;2023-09-18T10:35:59;7.57;;;0.68;;
44694;SDS011;32845;59.422;17.930;2023-09-18T10:40:31;1.77;;;0.50;;
44694;SDS011;32845;59.422;17.930;2023-09-18T10:45:03;3.90;;;0.95;;
44694;SDS011;32845;59.422;17.930;2023-09-18T10:49:35;2.83;;;0.80;;
44694;SDS011;32845;59.422;17.930;2023-09-18T10:54:07;0.68;;;0.40;;
44694;SDS011;32845;59.422;17.930;2023-09-18T10:58:38;2.67;;;0.50;;
44694;SDS011;32845;59.422;17.930;2023-09-18T11:03:15;0.73;;;0.47;;
44694;SDS011;32845;59.422;17.930;2023-09-18T11:07:49;1.50;;;0.50;;
44694;SDS011;32845;59.422;17.930;2023-09-18T11:12:44;1.00;;;0.40;;
44694;SDS011;32845;59.422;17.930;2023-09-18T11:17:31;4.65;;;0.60;;
44694;SDS011;32845;59.422;17.930;2023-09-18T11:22:07;3.42;;;0.60;;
44694;SDS011;32845;59.422;17.930;2023-09-18T11:26:42;0.75;;;0.30;;
44694;SDS011;32845;59.422;17.930;2023-09-18T11:31:14;0.98;;;0.40;;
44694;SDS011;32845;59.422;17.930;2023-09-18T11:35:51;2.15;;;0.50;;
44694;SDS011;32845;59.422;17.930;2023-09-18T11:40:29;1.55;;;0.60;;
44694;SDS011;32845;59.422;17.930;2023-09-18T11:45:16;1.23;;;0.47;;
44694;SDS011;32845;59.422;17.930;2023-09-18T11:49:48;2.22;;;0.57;;
44694;SDS011;32845;59.422;17.930;2023-09-18T11:54:28;4.20;;;0.57;;
44694;SDS011;32845;59.422;17.930;2023-09-18T11:59:04;3.05;;;0.50;;
44694;SDS011;32845;59.422;17.930;2023-09-18T12:03:35;2.75;;;0.50;;
44694;SDS011;32845;59.422;17.930;2023-09-18T12:08:05;2.38;;;0.63;;
44694;SDS011;32845;59.422;17.930;2023-09-18T12:12:36;2.90;;;0.45;;
44694;SDS011;32845;59.422;17.930;2023-09-18T12:17:07;2.63;;;0.60;;
44694;SDS011;32845;59.422;17.930;2023-09-18T12:21:45;1.52;;;0.55;;
44694;SDS011;32845;59.422;17.930;2023-09-18T12:26:17;1.63;;;0.50;;
44694;SDS011;32845;59.422;17.930;2023-09-18T12:30:50;1.90;;;0.60;;
44694;SDS011;32845;59.422;17.930;2023-09-18T12:35:22;2.53;;;0.47;;
44694;SDS011;32845;59.422;17.930;2023-09-18T12:39:55;3.97;;;0.50;;
44694;SDS011;32845;59.422;17.930;2023-09-18T12:44:25;1.73;;;0.40;;
44694;SDS011;32845;59.422;17.930;2023-09-18T12:48:56;2.30;;;0.50;;
44694;SDS011;32845;59.422;17.930;2023-09-18T12:53:27;0.90;;;0.40;;
44694;SDS011;32845;59.422;17.930;2023-09-18T12:57:57;4.38;;;0.60;;
44694;SDS011;32845;59.422;17.930;2023-09-18T13:02:29;2.83;;;0.30;;
44694;SDS011;32845;59.422;17.930;2023-09-18T13:07:06;2.95;;;0.55;;
44694;SDS011;32845;59.422;17.930;2023-09-18T13:11:52;2.85;;;0.68;;
44694;SDS011;32845;59.422;17.930;2023-09-18T13:16:26;4.45;;;0.70;;
44694;SDS011;32845;59.422;17.930;2023-09-18T13:20:57;1.98;;;0.60;;
44694;SDS011;32845;59.422;17.930;2023-09-18T13:25:39;4.05;;;0.50;;
44694;SDS011;32845;59.422;17.930;2023-09-18T13:30:12;3.95;;;0.60;;
44694;SDS011;32845;59.422;17.930;2023-09-18T13:34:47;1.23;;;0.50;;
44694;SDS011;32845;59.422;17.930;2023-09-18T13:39:18;1.30;;;0.40;;
44694;SDS011;32845;59.422;17.930;2023-09-18T13:43:48;3.40;;;0.63;;
44694;SDS011;32845;59.422;17.930;2023-09-18T13:48:19;3.55;;;0.52;;
44694;SDS011;32845;59.422;17.930;2023-09-18T13:52:50;3.97;;;0.60;;
44694;SDS011;32845;59.422;17.930;2023-09-18T13:57:20;1.50;;;0.60;;
44694;SDS011;32845;59.422;17.930;2023-09-18T14:01:51;2.05;;;0.55;;
44694;SDS011;32845;59.422;17.930;2023-09-18T14:06:22;1.42;;;0.55;;
44694;SDS011;32845;59.422;17.930;2023-09-18T14:10:53;3.80;;;0.47;;
44694;SDS011;32845;59.422;17.930;2023-09-18T14:15:23;2.47;;;0.70;;
44694;SDS011;32845;59.422;17.930;2023-09-18T14:19:54;2.88;;;0.70;;
44694;SDS011;32845;59.422;17.930;2023-09-18T14:24:24;2.67;;;0.50;;
44694;SDS011;32845;59.422;17.930;2023-09-18T14:28:55;2.92;;;0.80;;
44694;SDS011;32845;59.422;17.930;2023-09-18T14:33:26;2.13;;;0.57;;
44694;SDS011;32845;59.422;17.930;2023-09-18T14:37:56;2.97;;;0.65;;
44694;SDS011;32845;59.422;17.930;2023-09-18T14:42:27;3.53;;;0.75;;
44694;SDS011;32845;59.422;17.930;2023-09-18T14:46:58;0.22;;;0.22;;
44694;SDS011;32845;59.422;17.930;2023-09-18T14:51:29;11.27;;;0.77;;
44694;SDS011;32845;59.422;17.930;2023-09-18T14:56:01;2.17;;;0.80;;
44694;SDS011;32845;59.422;17.930;2023-09-18T15:00:31;3.50;;;0.80;;
44694;SDS011;32845;59.422;17.930;2023-09-18T15:05:02;3.15;;;0.50;;
44694;SDS011;32845;59.422;17.930;2023-09-18T15:09:35;1.92;;;0.60;;
44694;SDS011;32845;59.422;17.930;2023-09-18T15:14:05;5.65;;;0.68;;
44694;SDS011;32845;59.422;17.930;2023-09-18T15:18:36;2.20;;;0.77;;
44694;SDS011;32845;59.422;17.930;2023-09-18T15:23:07;4.50;;;0.80;;
44694;SDS011;32845;59.422;17.930;2023-09-18T15:27:40;1.88;;;0.47;;
44694;SDS011;32845;59.422;17.930;2023-09-18T15:32:10;3.00;;;0.60;;
44694;SDS011;32845;59.422;17.930;2023-09-18T15:36:41;3.75;;;0.88;;
44694;SDS011;32845;59.422;17.930;2023-09-18T15:41:11;3.22;;;0.73;;
44694;SDS011;32845;59.422;17.930;2023-09-18T15:45:44;2.80;;;0.80;;
44694;SDS011;32845;59.422;17.930;2023-09-18T15:50:15;1.65;;;0.68;;
44694;SDS011;32845;59.422;17.930;2023-09-18T15:54:45;4.55;;;1.10;;
44694;SDS011;32845;59.422;17.930;2023-09-18T15:59:16;5.13;;;0.82;;
44694;SDS011;32845;59.422;17.930;2023-09-18T16:03:46;1.17;;;0.60;;
44694;SDS011;32845;59.422;17.930;2023-09-18T16:08:17;2.33;;;0.63;;
44694;SDS011;32845;59.422;17.930;2023-09-18T16:12:51;3.67;;;0.73;;
44694;SDS011;32845;59.422;17.930;2023-09-18T16:17:21;3.38;;;0.90;;
44694;SDS011;32845;59.422;17.930;2023-09-18T16:21:52;2.33;;;0.70;;
44694;SDS011;32845;59.422;17.930;2023-09-18T16:26:23;2.75;;;0.70;;
44694;SDS011;32845;59.422;17.930;2023-09-18T16:30:53;2.35;;;0.70;;
44694;SDS011;32845;59.422;17.930;2023-09-18T16:35:24;7.43;;;1.05;;
44694;SDS011;32845;59.422;17.930;2023-09-18T16:39:55;4.93;;;1.08;;
44694;SDS011;32845;59.422;17.930;2023-09-18T16:44:30;4.55;;;0.75;;
44694;SDS011;32845;59.422;17.930;2023-09-18T16:49:01;6.30;;;0.82;;
44694;SDS011;32845;59.422;17.930;2023-09-18T16:53:34;4.40;;;0.95;;
44694;SDS011;32845;59.422;17.930;2023-09-18T16:58:04;2.50;;;0.60;;
44694;SDS011;32845;59.422;17.930;2023-09-18T17:02:35;4.20;;;0.80;;
44694;SDS011;32845;59.422;17.930;2023-09-18T17:07:06;6.47;;;0.73;;
44694;SDS011;32845;59.422;17.930;2023-09-18T17:11:39;2.78;;;1.08;;
44694;SDS011;32845;59.422;17.930;2023-09-18T17:16:10;2.97;;;0.90;;
44694;SDS011;32845;59.422;17.930;2023-09-18T17:20:43;2.97;;;0.70;;
44694;SDS011;32845;59.422;17.930;2023-09-18T17:25:14;2.28;;;0.70;;
44694;SDS011;32845;59.422;17.930;2023-09-18T17:29:45;6.47;;;0.88;;
44694;SDS011;32845;59.422;17.930;2023-09-18T17:34:16;2.72;;;0.75;;
44694;SDS011;32845;59.422;17.930;2023-09-18T17:38:46;3.88;;;0.90;;
44694;SDS011;32845;59.422;17.930;2023-09-18T17:43:19;2.78;;;0.75;;
44694;SDS011;32845;59.422;17.930;2023-09-18T17:47:50;3.78;;;0.60;;
44694;SDS011;32845;59.422;17.930;2023-09-18T17:52:20;6.88;;;0.90;;
44694;SDS011;32845;59.422;17.930;2023-09-18T17:56:51;2.88;;;0.68;;
44694;SDS011;32845;59.422;17.930;2023-09-18T18:01:22;2.33;;;0.70;;
44694;SDS011;32845;59.422;17.930;2023-09-18T18:05:53;4.00;;;0.73;;
44694;SDS011;32845;59.422;17.930;2023-09-18T18:10:23;5.90;;;0.82;;
44694;SDS011;32845;59.422;17.930;2023-09-18T18:14:54;7.05;;;1.00;;
44694;SDS011;32845;59.422;17.930;2023-09-18T18:19:24;4.20;;;0.73;;
44694;SDS011;32845;59.422;17.930;2023-09-18T18:23:55;3.85;;;0.95;;
44694;SDS011;32845;59.422;17.930;2023-09-18T18:28:26;7.35;;;0.80;;
44694;SDS011;32845;59.422;17.930;2023-09-18T18:32:56;6.88;;;0.98;;
44694;SDS011;32845;59.422;17.930;2023-09-18T18:37:27;4.75;;;0.80;;
44694;SDS011;32845;59.422;17.930;2023-09-18T18:41:57;2.42;;;0.68;;
44694;SDS011;32845;59.422;17.930;2023-09-18T18:46:28;4.20;;;1.08;;
44694;SDS011;32845;59.422;17.930;2023-09-18T18:51:00;5.18;;;0.60;;
44694;SDS011;32845;59.422;17.930;2023-09-18T18:55:38;7.53;;;0.82;;
44694;SDS011;32845;59.422;17.930;2023-09-18T19:00:09;7.40;;;1.30;;
44694;SDS011;32845;59.422;17.930;2023-09-18T19:04:41;9.73;;;1.48;;
44694;SDS011;32845;59.422;17.930;2023-09-18T19:09:12;3.90;;;0.70;;
44694;SDS011;32845;59.422;17.930;2023-09-18T19:13:43;2.63;;;0.82;;
44694;SDS011;32845;59.422;17.930;2023-09-18T19:18:13;8.68;;;0.90;;
44694;SDS011;32845;59.422;17.930;2023-09-18T19:22:44;5.28;;;1.20;;
44694;SDS011;32845;59.422;17.930;2023-09-18T19:27:15;2.85;;;0.80;;
44694;SDS011;32845;59.422;17.930;2023-09-18T19:31:45;4.57;;;0.80;;
44694;SDS011;32845;59.422;17.930;2023-09-18T19:36:18;3.65;;;0.88;;
44694;SDS011;32845;59.422;17.930;2023-09-18T19:40:49;7.50;;;1.00;;
44694;SDS011;32845;59.422;17.930;2023-09-18T19:45:20;5.63;;;0.73;;
44694;SDS011;32845;59.422;17.930;2023-09-18T19:49:51;8.70;;;1.55;;
44694;SDS011;32845;59.422;17.930;2023-09-18T19:54:21;7.75;;;1.00;;
44694;SDS011;32845;59.422;17.930;2023-09-18T19:58:54;4.88;;;1.00;;
44694;SDS011;32845;59.422;17.930;2023-09-18T20:03:24;5.68;;;1.20;;
44694;SDS011;32845;59.422;17.930;2023-09-18T20:07:55;4.80;;;0.93;;
44694;SDS011;32845;59.422;17.930;2023-09-18T20:12:25;7.20;;;1.27;;
44694;SDS011;32845;59.422;17.930;2023-09-18T20:16:57;7.68;;;1.23;;
44694;SDS011;32845;59.422;17.930;2023-09-18T20:21:28;7.13;;;1.20;;
44694;SDS011;32845;59.422;17.930;2023-09-18T20:25:59;5.78;;;0.88;;
44694;SDS011;32845;59.422;17.930;2023-09-18T20:30:30;13.27;;;1.40;;
44694;SDS011;32845;59.422;17.930;2023-09-18T20:35:06;5.60;;;1.13;;
44694;SDS011;32845;59.422;17.930;2023-09-18T20:39:37;7.78;;;1.45;;
44694;SDS011;32845;59.422;17.930;2023-09-18T20:44:07;2.28;;;0.90;;
44694;SDS011;32845;59.422;17.930;2023-09-18T20:48:38;7.22;;;1.30;;
44694;SDS011;32845;59.422;17.930;2023-09-18T20:53:09;6.47;;;1.25;;
44694;SDS011;32845;59.422;17.930;2023-09-18T20:57:40;6.95;;;1.27;;
44694;SDS011;32845;59.422;17.930;2023-09-18T21:02:11;12.75;;;1.40;;
44694;SDS011;32845;59.422;17.930;2023-09-18T21:06:43;7.97;;;1.98;;
44694;SDS011;32845;59.422;17.930;2023-09-18T21:11:14;4.90;;;1.45;;
44694;SDS011;32845;59.422;17.930;2023-09-18T21:15:44;2.90;;;1.30;;
44694;SDS011;32845;59.422;17.930;2023-09-18T21:20:15;9.40;;;1.50;;
44694;SDS011;32845;59.422;17.930;2023-09-18T21:24:46;3.67;;;1.35;;
44694;SDS011;32845;59.422;17.930;2023-09-18T21:29:17;5.72;;;1.70;;
44694;SDS011;32845;59.422;17.930;2023-09-18T21:33:51;5.40;;;1.60;;
44694;SDS011;32845;59.422;17.930;2023-09-18T21:38:22;5.32;;;1.58;;
44694;SDS011;32845;59.422;17.930;2023-09-18T21:42:53;9.27;;;2.45;;
44694;SDS011;32845;59.422;17.930;2023-09-18T21:47:24;6.00;;;1.45;;
44694;SDS011;32845;59.422;17.930;2023-09-18T21:51:54;4.80;;;1.60;;
44694;SDS011;32845;59.422;17.930;2023-09-18T21:56:25;6.47;;;1.50;;
44694;SDS011;32845;59.422;17.930;2023-09-18T22:05:26;10.32;;;1.75;;
44694;SDS011;32845;59.422;17.930;2023-09-18T22:09:57;8.10;;;2.03;;
44694;SDS011;32845;59.422;17.930;2023-09-18T22:14:27;9.00;;;2.15;;
44694;SDS011;32845;59.422;17.930;2023-09-18T22:18:58;7.75;;;1.92;;
44694;SDS011;32845;59.422;17.930;2023-09-18T22:23:28;12.93;;;2.20;;
44694;SDS011;32845;59.422;17.930;2023-09-18T22:27:59;8.23;;;2.28;;
44694;SDS011;32845;59.422;17.930;2023-09-18T22:32:31;10.40;;;2.60;;
44694;SDS011;32845;59.422;17.930;2023-09-18T22:37:03;5.18;;;2.20;;
44694;SDS011;32845;59.422;17.930;2023-09-18T22:56:26;10.43;;;2.72;;
44694;SDS011;32845;59.422;17.930;2023-09-18T23:00:57;6.28;;;2.47;;
44694;SDS011;32845;59.422;17.930;2023-09-18T23:05:30;8.57;;;2.50;;
44694;SDS011;32845;59.422;17.930;2023-09-18T23:10:02;7.85;;;2.53;;
44694;SDS011;32845;59.422;17.930;2023-09-18T23:14:34;5.10;;;2.72;;
44694;SDS011;32845;59.422;17.930;2023-09-18T23:19:05;6.97;;;2.35;;
44694;SDS011;32845;59.422;17.930;2023-09-18T23:23:35;11.98;;;3.22;;
44694;SDS011;32845;59.422;17.930;2023-09-18T23:28:06;5.38;;;2.50;;
44694;SDS011;32845;59.422;17.930;2023-09-18T23:32:37;7.18;;;2.83;;
44694;SDS011;32845;59.422;17.930;2023-09-18T23:37:08;10.45;;;2.90;;
44694;SDS011;32845;59.422;17.930;2023-09-18T23:41:39;11.45;;;3.30;;
44694;SDS011;32845;59.422;17.930;2023-09-18T23:46:09;11.93;;;3.00;;
44694;SDS011;32845;59.422;17.930;2023-09-18T23:50:44;16.63;;;3.70;;
44694;SDS011;32845;59.422;17.930;2023-09-18T23:55:19;9.90;;;2.90;;
44694;SDS011;32845;59.422;17.930;2023-09-18T23:59:50;10.13;;;3.40;;
